createdAt,value
2019-06-20T08:25:04.168Z,180
2019-06-20T08:26:03.371Z,258.75
2019-06-20T08:27:03.547Z,326.25
2019-06-20T08:28:03.132Z,320.625
2019-06-20T08:30:03.967Z,281.25
2019-06-20T08:31:03.537Z,236.25
2019-06-20T08:32:03.257Z,219.375
2019-06-20T08:33:05.854Z,320.625
2019-06-20T08:34:03.163Z,281.25
2019-06-20T08:35:03.196Z,264.375
2019-06-20T08:36:03.259Z,270
2019-06-20T08:37:03.061Z,157.5
2019-06-20T08:38:04.025Z,241.875
2019-06-20T08:39:03.305Z,208.125
2019-06-20T08:40:03.031Z,78.75
2019-06-20T08:41:03.110Z,67.5
2019-06-20T08:42:03.109Z,33.75
2019-06-20T08:43:02.690Z,33.75
2019-06-20T08:44:02.751Z,39.375
2019-06-20T08:45:02.697Z,39.375
2019-06-20T08:46:02.749Z,202.5
2019-06-20T08:47:02.692Z,286.875
2019-06-20T08:48:03.408Z,286.875
2019-06-20T08:49:02.364Z,247.5
2019-06-20T08:50:02.493Z,275.625
2019-06-20T08:51:03.172Z,303.75
2019-06-20T08:52:02.245Z,281.25
2019-06-20T08:53:02.365Z,202.5
2019-06-20T08:54:02.095Z,270
2019-06-20T08:55:02.063Z,185.625
2019-06-20T08:56:01.801Z,258.75
2019-06-20T08:57:01.874Z,247.5
2019-06-20T08:58:02.107Z,208.125
2019-06-20T08:59:01.457Z,196.875
2019-06-20T09:07:01.015Z,230.625
2019-06-20T09:09:00.964Z,151.875
2019-06-20T09:10:00.590Z,106.875
2019-06-20T09:11:00.519Z,56.25
2019-06-20T09:12:01.196Z,50.625
2019-06-20T09:13:00.159Z,50.625
2019-06-20T09:13:59.966Z,56.25
2019-06-20T09:14:59.862Z,67.5
2019-06-20T09:15:59.718Z,61.875
2019-06-20T09:16:59.634Z,61.875
2019-06-20T09:17:59.470Z,67.5
2019-06-20T09:18:59.219Z,67.5
2019-06-20T09:19:59.010Z,90
2019-06-20T09:20:58.946Z,78.75
2019-06-20T09:21:58.860Z,33.75
2019-06-20T09:22:59.714Z,123.75
2019-06-20T09:23:58.658Z,95.625
2019-06-20T09:24:59.508Z,101.25
2019-06-20T09:26:00.590Z,67.5
2019-06-20T09:26:58.210Z,101.25
2019-06-20T09:27:59.182Z,135
2019-06-20T09:28:58.086Z,219.375
2019-06-20T09:29:59.256Z,208.125
2019-06-20T09:30:57.951Z,230.625
2019-06-20T09:31:58.909Z,225
2019-06-20T09:32:58.723Z,258.75
2019-06-20T09:34:02.373Z,157.5
2019-06-20T09:34:57.349Z,241.875
2019-06-20T09:35:58.294Z,185.625
2019-06-20T09:36:58.247Z,174.375
2019-06-20T09:37:58.003Z,320.625
2019-06-20T09:38:58.139Z,315
2019-06-20T09:39:57.858Z,174.375
2019-06-20T09:40:57.905Z,247.5
2019-06-20T09:41:57.644Z,191.25
2019-06-20T09:42:57.461Z,270
2019-06-20T09:43:57.343Z,292.5
2019-06-20T09:44:57.279Z,331.875
2019-06-20T09:45:56.977Z,258.75
2019-06-20T09:46:56.936Z,208.125
2019-06-20T09:47:56.869Z,140.625
2019-06-20T09:48:57.255Z,140.625
2019-06-20T09:49:57.629Z,73.125
2019-06-20T09:50:55.757Z,123.75
2019-06-20T09:51:55.252Z,78.75
2019-06-20T09:52:55.264Z,67.5
2019-06-20T09:53:54.930Z,112.5
2019-06-20T09:54:54.831Z,146.25
2019-06-20T09:55:54.545Z,163.125
2019-06-20T09:56:55.334Z,168.75
2019-06-20T09:57:54.552Z,163.125
2019-06-20T09:58:54.051Z,146.25
2019-06-20T10:00:05.268Z,140.625
2019-06-20T10:00:53.870Z,123.75
2019-06-20T10:01:53.791Z,118.125
2019-06-20T10:02:54.363Z,67.5
2019-06-20T10:03:53.349Z,50.625
2019-06-20T10:04:53.221Z,90
2019-06-20T10:05:53.404Z,78.75
2019-06-20T10:06:53.178Z,39.375
2019-06-20T10:07:53.088Z,61.875
2019-06-20T10:08:53.062Z,90
2019-06-20T10:09:52.861Z,135
2019-06-20T10:10:52.831Z,135
2019-06-20T10:11:52.802Z,151.875
2019-06-20T10:12:52.494Z,56.25
2019-06-20T10:13:54.927Z,196.875
2019-06-20T10:14:52.455Z,185.625
2019-06-20T10:15:52.297Z,106.875
2019-06-20T10:16:53.853Z,95.625
2019-06-20T10:18:53.209Z,157.5
2019-06-20T10:19:52.930Z,146.25
2019-06-20T10:20:51.864Z,118.125
2019-06-20T10:21:52.681Z,106.875
2019-06-20T10:22:51.806Z,56.25
2019-06-20T10:23:52.731Z,101.25
2019-06-20T10:24:52.335Z,78.75
2019-06-20T10:25:52.369Z,90
2019-06-20T10:26:52.234Z,84.375
2019-06-20T10:27:52.013Z,56.25
2019-06-20T10:28:51.914Z,61.875
2019-06-20T10:29:51.916Z,56.25
2019-06-20T10:30:51.980Z,56.25
2019-06-20T10:31:51.754Z,78.75
2019-06-20T10:32:51.824Z,90
2019-06-20T10:33:51.377Z,95.625
2019-06-20T10:34:51.524Z,95.625
2019-06-20T10:35:51.287Z,84.375
2019-06-20T10:36:51.056Z,90
2019-06-20T10:37:51.281Z,90
2019-06-20T10:38:51.124Z,84.375
2019-06-20T10:39:50.898Z,135
2019-06-20T10:40:50.884Z,168.75
2019-06-20T10:41:51.087Z,191.25
2019-06-20T10:42:51.181Z,219.375
2019-06-20T10:43:50.559Z,225
2019-06-20T10:44:50.973Z,253.125
2019-06-20T10:45:51.356Z,157.5
2019-06-20T10:46:50.133Z,123.75
2019-06-20T10:47:49.484Z,202.5
2019-06-20T10:48:48.919Z,140.625
2019-06-20T10:49:48.610Z,168.75
2019-06-20T10:50:48.586Z,157.5
2019-06-20T10:51:48.402Z,163.125
2019-06-20T10:52:48.721Z,196.875
2019-06-20T10:53:50.144Z,168.75
2019-06-20T10:54:48.096Z,67.5
2019-06-20T10:55:47.864Z,73.125
2019-06-20T10:56:47.631Z,286.875
2019-06-20T10:57:47.956Z,292.5
2019-06-20T10:58:47.312Z,286.875
2019-06-20T10:59:47.281Z,331.875
2019-06-20T11:00:46.973Z,292.5
2019-06-20T11:01:47.064Z,253.125
2019-06-20T11:02:47.840Z,371.25
2019-06-20T11:03:46.640Z,292.5
2019-06-20T11:04:46.573Z,455.625
2019-06-20T11:05:46.540Z,455.625
2019-06-20T11:06:46.271Z,416.25
2019-06-20T11:07:46.247Z,309.375
2019-06-20T11:08:46.102Z,298.125
2019-06-20T11:09:45.964Z,416.25
2019-06-20T11:10:45.965Z,421.875
2019-06-20T11:11:45.626Z,371.25
2019-06-20T11:12:49.898Z,337.5
2019-06-20T11:13:45.305Z,253.125
2019-06-20T11:14:45.041Z,146.25
2019-06-20T11:15:44.985Z,225
2019-06-20T11:16:45.854Z,196.875
2019-06-20T11:17:44.897Z,213.75
2019-06-20T11:18:45.158Z,151.875
2019-06-20T11:19:44.471Z,140.625
2019-06-20T11:20:45.305Z,146.25
2019-06-20T11:21:44.341Z,135
2019-06-20T11:22:44.101Z,135
2019-06-20T11:23:43.908Z,151.875
2019-06-20T11:24:43.921Z,168.75
2019-06-20T11:25:45.158Z,135
2019-06-20T11:26:44.665Z,331.875
2019-06-20T11:27:43.538Z,337.5
2019-06-20T11:28:47.364Z,382.5
2019-06-20T11:29:42.765Z,376.875
2019-06-20T11:30:53.858Z,337.5
2019-06-20T11:31:46.617Z,416.25
2019-06-20T11:32:44.539Z,427.5
2019-06-20T11:33:42.932Z,405
2019-06-20T11:34:46.161Z,337.5
2019-06-20T11:35:42.254Z,382.5
2019-06-20T11:36:43.488Z,416.25
2019-06-20T11:37:43.439Z,365.625
2019-06-20T11:38:45.728Z,354.375
2019-06-20T11:39:41.912Z,343.125
2019-06-20T11:40:42.649Z,331.875
2019-06-20T11:41:42.454Z,405
2019-06-20T11:42:43.304Z,309.375
2019-06-20T11:43:41.027Z,196.875
2019-06-20T11:44:41.813Z,230.625
2019-06-20T11:45:41.810Z,292.5
2019-06-20T11:46:41.462Z,315
2019-06-20T11:47:41.307Z,320.625
2019-06-20T11:48:41.505Z,309.375
2019-06-20T11:49:41.296Z,292.5
2019-06-20T11:50:40.825Z,286.875
2019-06-20T11:51:40.703Z,315
2019-06-20T11:52:42.352Z,399.375
2019-06-20T11:53:39.298Z,270
2019-06-20T11:54:39.075Z,405
2019-06-20T12:01:45.612Z,253.125
2019-06-20T12:02:46.613Z,275.625
2019-06-20T12:03:45.533Z,146.25
2019-06-20T12:04:45.851Z,146.25
2019-06-20T12:05:45.885Z,129.375
2019-06-20T12:06:45.740Z,129.375
2019-06-20T12:07:46.024Z,129.375
2019-06-20T12:08:45.604Z,151.875
2019-06-20T12:09:47.843Z,191.25
2019-06-20T12:10:46.020Z,253.125
2019-06-20T12:11:45.534Z,56.25
2019-06-20T12:12:45.501Z,101.25
2019-06-20T12:13:45.202Z,191.25
2019-06-20T12:14:45.304Z,151.875
2019-06-20T12:15:45.430Z,140.625
2019-06-20T12:16:45.271Z,140.625
2019-06-20T12:17:45.635Z,225
2019-06-20T12:18:46.002Z,151.875
2019-06-20T12:19:45.495Z,163.125
2019-06-20T12:20:45.446Z,146.25
2019-06-20T12:21:45.625Z,140.625
2019-06-20T12:22:45.370Z,146.25
2019-06-20T12:23:45.635Z,135
2019-06-20T12:24:45.395Z,146.25
2019-06-20T12:25:45.246Z,151.875
2019-06-20T12:26:45.384Z,140.625
2019-06-20T12:27:46.062Z,140.625
2019-06-20T12:28:45.425Z,146.25
2019-06-20T12:29:45.230Z,140.625
2019-06-20T12:30:46.787Z,151.875
2019-06-20T12:31:51.491Z,151.875
2019-06-20T12:32:47.932Z,146.25
2019-06-20T12:33:45.922Z,135
2019-06-20T12:34:45.414Z,129.375
2019-06-20T12:35:45.312Z,106.875
2019-06-20T12:36:45.301Z,101.25
2019-06-20T12:37:48.488Z,95.625
2019-06-20T12:38:47.049Z,101.25
2019-06-20T12:39:45.188Z,101.25
2019-06-20T12:40:44.755Z,101.25
2019-06-20T12:41:46.366Z,95.625
2019-06-20T12:42:45.368Z,95.625
2019-06-20T12:43:44.954Z,95.625
2019-06-20T12:44:44.786Z,95.625
2019-06-20T12:45:48.278Z,106.875
2019-06-20T12:46:45.836Z,101.25
2019-06-20T12:47:44.650Z,101.25
2019-06-20T12:48:45.747Z,101.25
2019-06-20T12:49:44.686Z,101.25
2019-06-20T12:50:46.313Z,106.875
2019-06-20T12:51:45.727Z,95.625
2019-06-20T12:52:46.150Z,101.25
2019-06-20T12:53:44.980Z,95.625
2019-06-20T12:54:45.769Z,95.625
2019-06-20T12:55:46.260Z,84.375
2019-06-20T12:56:44.893Z,73.125
2019-06-20T12:57:44.883Z,67.5
2019-06-20T12:58:45.223Z,61.875
2019-06-20T12:59:44.966Z,56.25
2019-06-20T13:00:45.188Z,50.625
2019-06-20T13:01:48.187Z,56.25
2019-06-20T13:02:46.145Z,56.25
2019-06-20T13:03:46.890Z,67.5
2019-06-20T13:04:44.836Z,73.125
2019-06-20T13:05:45.694Z,78.75
2019-06-20T13:06:45.721Z,84.375
2019-06-20T13:07:44.917Z,95.625
2019-06-20T13:08:46.022Z,106.875
2019-06-20T13:09:44.934Z,106.875
2019-06-20T13:10:44.881Z,95.625
2019-06-20T13:11:45.768Z,90
2019-06-20T13:12:47.539Z,84.375
2019-06-20T13:13:45.409Z,106.875
2019-06-20T13:14:46.332Z,95.625
2019-06-20T13:15:45.653Z,90
2019-06-20T13:16:46.673Z,84.375
2019-06-20T13:17:45.466Z,73.125
2019-06-20T13:18:47.033Z,67.5
2019-06-20T13:19:45.141Z,67.5
2019-06-20T13:20:45.193Z,67.5
2019-06-20T13:21:45.275Z,56.25
2019-06-20T13:22:45.208Z,50.625
2019-06-20T13:23:45.951Z,45
2019-06-20T13:24:45.946Z,33.75
2019-06-20T13:25:45.443Z,28.125
2019-06-20T13:26:49.325Z,39.375
2019-06-20T13:27:46.447Z,33.75
2019-06-20T13:29:00.490Z,33.75
2019-06-20T13:29:45.976Z,33.75
2019-06-20T13:30:48.531Z,39.375
2019-06-20T13:31:58.045Z,39.375
2019-06-20T13:32:45.751Z,39.375
2019-06-20T13:33:45.492Z,39.375
2019-06-20T13:34:45.443Z,39.375
2019-06-20T13:35:47.309Z,39.375
2019-06-20T13:36:45.714Z,45
2019-06-20T13:37:46.157Z,45
2019-06-20T13:38:45.388Z,50.625
2019-06-20T13:39:46.190Z,56.25
2019-06-20T13:40:46.022Z,61.875
2019-06-20T13:41:46.797Z,61.875
2019-06-20T13:42:46.513Z,56.25
2019-06-20T13:44:18.333Z,56.25
2019-06-20T13:45:48.563Z,61.875
2019-06-20T13:46:47.683Z,61.875
2019-06-20T13:47:46.493Z,56.25
2019-06-20T13:48:46.229Z,56.25
2019-06-20T13:49:46.417Z,56.25
2019-06-20T13:50:46.133Z,45
2019-06-20T13:51:46.408Z,50.625
2019-06-20T13:52:47.138Z,50.625
2019-06-20T13:53:47.264Z,50.625
2019-06-20T13:54:46.607Z,45
2019-06-20T13:55:46.448Z,45
2019-06-20T13:56:50.514Z,45
2019-06-20T13:57:47.708Z,45
2019-06-20T13:58:49.737Z,50.625
2019-06-20T13:59:51.398Z,56.25
2019-06-20T14:00:51.398Z,67.5
2019-06-20T14:01:47.669Z,67.5
2019-06-20T14:02:47.304Z,78.75
2019-06-20T14:03:47.312Z,84.375
2019-06-20T14:04:47.092Z,84.375
2019-06-20T14:05:48.343Z,90
2019-06-20T14:06:48.307Z,84.375
2019-06-20T14:07:51.759Z,90
2019-06-20T14:08:48.577Z,90
2019-06-20T14:09:49.669Z,118.125
2019-06-20T14:10:50.846Z,129.375
2019-06-20T14:11:49.451Z,129.375
2019-06-20T14:12:47.383Z,129.375
2019-06-20T14:13:50.094Z,146.25
2019-06-20T14:14:48.716Z,146.25
2019-06-20T14:15:49.656Z,157.5
2019-06-20T14:16:49.534Z,174.375
2019-06-20T14:17:47.923Z,191.25
2019-06-20T14:18:57.573Z,180
2019-06-20T14:20:49.416Z,140.625
2019-06-20T14:21:52.984Z,129.375
2019-06-20T14:22:53.132Z,118.125
2019-06-20T14:23:52.319Z,112.5
2019-06-20T14:24:52.175Z,106.875
2019-06-20T14:25:52.535Z,95.625
2019-06-20T14:26:57.136Z,90
2019-06-20T14:27:52.563Z,84.375
2019-06-20T14:28:49.641Z,84.375
2019-06-20T14:29:49.593Z,78.75
2019-06-20T14:30:51.395Z,73.125
2019-06-20T14:31:50.356Z,73.125
2019-06-20T14:32:52.281Z,73.125
2019-06-20T14:33:49.392Z,61.875
2019-06-20T14:34:50.898Z,67.5
2019-06-20T14:35:49.647Z,67.5
2019-06-20T14:36:50.851Z,67.5
2019-06-20T14:37:49.916Z,61.875
2019-06-20T14:38:50.292Z,56.25
2019-06-20T14:39:55.767Z,56.25
2019-06-20T14:40:51.095Z,50.625
2019-06-20T14:41:49.670Z,56.25
2019-06-20T14:42:50.935Z,56.25
2019-06-20T14:43:50.498Z,61.875
2019-06-20T14:44:51.082Z,67.5
2019-06-20T14:45:49.431Z,67.5
2019-06-20T14:47:07.921Z,67.5
2019-06-20T14:48:21.460Z,67.5
2019-06-20T14:49:47.159Z,73.125
2019-06-20T14:50:50.134Z,73.125
2019-06-20T14:51:51.084Z,73.125
2019-06-20T14:52:50.398Z,73.125
2019-06-20T14:53:51.217Z,67.5
2019-06-20T14:54:50.429Z,67.5
2019-06-20T14:55:50.452Z,67.5
2019-06-20T14:56:50.560Z,61.875
2019-06-20T14:57:50.889Z,61.875
2019-06-20T14:58:52.563Z,56.25
2019-06-20T14:59:51.326Z,61.875
2019-06-20T15:00:50.745Z,67.5
2019-06-20T15:01:51.271Z,67.5
2019-06-20T15:02:54.386Z,67.5
2019-06-20T15:03:52.469Z,78.75
2019-06-20T15:04:50.877Z,84.375
2019-06-20T15:05:51.116Z,90
2019-06-20T15:06:51.196Z,90
2019-06-20T15:07:52.019Z,73.125
2019-06-20T15:08:57.208Z,73.125
2019-06-20T15:09:51.828Z,67.5
2019-06-20T15:10:52.746Z,73.125
2019-06-20T15:11:51.747Z,67.5
2019-06-20T15:12:52.146Z,61.875
2019-06-20T15:13:52.119Z,67.5
2019-06-20T15:14:52.123Z,73.125
2019-06-20T15:15:52.070Z,78.75
2019-06-20T15:16:52.308Z,78.75
2019-06-20T15:17:53.969Z,84.375
2019-06-20T15:18:54.032Z,78.75
2019-06-20T15:19:52.971Z,73.125
2019-06-20T15:20:56.010Z,73.125
2019-06-20T15:21:52.954Z,67.5
2019-06-20T15:22:53.186Z,67.5
2019-06-20T15:23:53.120Z,61.875
2019-06-20T15:24:53.828Z,61.875
2019-06-20T15:25:52.785Z,61.875
2019-06-20T15:26:52.941Z,61.875
2019-06-20T15:27:53.834Z,67.5
2019-06-20T15:28:53.663Z,84.375
2019-06-20T15:29:53.116Z,84.375
2019-06-20T15:30:53.459Z,84.375
2019-06-20T15:31:53.475Z,84.375
2019-06-20T15:33:05.040Z,84.375
2019-06-20T15:33:53.741Z,84.375
2019-06-20T15:34:53.923Z,90
2019-06-20T15:35:55.139Z,90
2019-06-20T15:36:53.876Z,84.375
2019-06-20T15:37:54.217Z,95.625
2019-06-20T15:38:53.771Z,95.625
2019-06-20T15:39:54.159Z,112.5
2019-06-20T15:40:54.175Z,118.125
2019-06-20T15:41:54.635Z,129.375
2019-06-20T15:42:55.291Z,180
2019-06-20T15:43:54.463Z,185.625
2019-06-20T15:44:54.537Z,241.875
2019-06-20T15:45:54.543Z,140.625
